createdAt,value
2022-12-23T00:00:23.326Z,9.90
2022-12-23T00:03:12.577Z,9.80
2022-12-23T00:06:01.326Z,9.90
2022-12-23T00:08:49.259Z,9.90
2022-12-23T00:11:37.615Z,9.90
2022-12-23T00:14:42.400Z,9.90
2022-12-23T00:17:30.170Z,9.80
2022-12-23T00:20:19.844Z,9.70
2022-12-23T00:23:07.722Z,10.40
2022-12-23T00:25:55.847Z,9.80
2022-12-23T00:28:44.317Z,9.80
2022-12-23T00:31:32.278Z,9.80
2022-12-23T00:34:19.857Z,9.80
2022-12-23T00:37:09.252Z,9.80
2022-12-23T00:40:14.364Z,9.80
2022-12-23T00:43:02.754Z,9.90
2022-12-23T00:45:50.721Z,9.90
2022-12-23T00:48:55.782Z,9.90
2022-12-23T00:51:44.126Z,9.90
2022-12-23T00:54:33.943Z,9.90
2022-12-23T00:57:21.925Z,9.90
2022-12-23T01:00:10.163Z,9.90
2022-12-23T01:03:15.645Z,9.90
2022-12-23T01:06:04.600Z,9.90
2022-12-23T01:08:52.630Z,9.90
2022-12-23T01:11:42.396Z,9.90
2022-12-23T01:14:30.565Z,10.70
2022-12-23T01:17:18.452Z,9.90
2022-12-23T01:20:07.304Z,9.90
2022-12-23T01:22:55.332Z,9.90
2022-12-23T01:25:43.407Z,9.90
2022-12-23T01:28:33.271Z,9.90
2022-12-23T01:31:21.034Z,9.90
2022-12-23T01:34:08.543Z,9.80
2022-12-23T01:36:56.065Z,9.90
2022-12-23T01:39:43.833Z,9.90
2022-12-23T01:42:51.052Z,9.90
2022-12-23T01:45:40.722Z,9.90
2022-12-23T01:48:28.765Z,9.90
2022-12-23T01:51:19.903Z,9.90
2022-12-23T01:54:07.472Z,10.00
2022-12-23T01:56:56.658Z,10.00
2022-12-23T02:00:03.356Z,10.00
2022-12-23T02:03:16.483Z,9.90
2022-12-23T02:06:18.692Z,9.90
2022-12-23T02:09:20.570Z,10.00
2022-12-23T02:12:41.484Z,10.00
2022-12-23T02:15:51.145Z,10.00
2022-12-23T02:18:53.941Z,9.90
2022-12-23T02:21:53.039Z,9.90
2022-12-23T02:25:04.895Z,9.80
2022-12-23T02:27:58.817Z,9.80
2022-12-23T02:30:49.753Z,9.80
2022-12-23T02:33:45.041Z,9.80
2022-12-23T02:36:39.045Z,9.70
2022-12-23T02:39:32.922Z,9.70
2022-12-23T02:42:24.201Z,9.60
2022-12-23T02:45:14.069Z,9.40
2022-12-23T02:48:06.084Z,10.70
2022-12-23T02:50:54.013Z,9.30
2022-12-23T02:53:44.748Z,9.50
2022-12-23T02:56:34.086Z,9.40
2022-12-23T02:59:23.079Z,9.40
2022-12-23T03:02:11.225Z,9.30
2022-12-23T03:05:01.226Z,9.20
2022-12-23T03:07:49.227Z,9.30
2022-12-23T03:10:41.359Z,9.30
2022-12-23T03:13:34.272Z,9.30
2022-12-23T03:16:23.975Z,9.30
2022-12-23T03:19:16.397Z,9.40
2022-12-23T03:22:09.656Z,9.50
2022-12-23T03:25:02.215Z,9.50
2022-12-23T03:27:53.730Z,9.60
2022-12-23T03:30:43.653Z,9.60
2022-12-23T03:33:34.271Z,9.60
2022-12-23T03:36:25.072Z,9.60
2022-12-23T03:39:17.461Z,9.60
2022-12-23T03:42:07.020Z,9.50
2022-12-23T03:45:36.433Z,9.50
2022-12-23T03:48:06.386Z,9.40
2022-12-23T03:50:55.954Z,9.30
2022-12-23T03:53:46.140Z,9.20
2022-12-23T03:56:36.828Z,9.10
2022-12-23T03:59:26.680Z,9.10
2022-12-23T04:02:17.652Z,9.10
2022-12-23T04:05:11.834Z,9.10
2022-12-23T04:08:01.436Z,9.20
2022-12-23T04:10:50.221Z,9.30
2022-12-23T04:13:40.166Z,9.30
2022-12-23T04:16:28.628Z,9.30
2022-12-23T04:19:15.801Z,9.30
2022-12-23T04:22:03.940Z,9.20
2022-12-23T04:24:51.835Z,9.30
2022-12-23T04:27:39.701Z,9.30
2022-12-23T04:30:33.940Z,9.30
2022-12-23T04:33:21.914Z,9.30
2022-12-23T04:36:09.677Z,9.40
2022-12-23T04:38:57.860Z,9.30
2022-12-23T04:41:45.322Z,9.30
2022-12-23T04:44:33.399Z,9.40
2022-12-23T04:47:22.608Z,9.40
2022-12-23T04:50:14.539Z,9.30
2022-12-23T04:53:02.011Z,9.40
2022-12-23T04:55:52.466Z,9.40
2022-12-23T04:58:39.903Z,9.40
2022-12-23T05:01:28.162Z,9.40
2022-12-23T05:04:17.378Z,9.40
2022-12-23T05:07:05.093Z,9.40
2022-12-23T05:09:52.768Z,9.00
2022-12-23T05:12:40.709Z,9.40
2022-12-23T05:15:28.263Z,9.40
2022-12-23T05:18:16.466Z,9.30
2022-12-23T05:21:05.819Z,9.30
2022-12-23T05:23:53.323Z,9.40
2022-12-23T05:26:43.816Z,9.40
2022-12-23T05:29:35.417Z,9.40
2022-12-23T05:32:22.822Z,9.40
2022-12-23T05:35:11.439Z,9.40
2022-12-23T05:38:00.135Z,9.40
2022-12-23T05:40:48.026Z,9.40
2022-12-23T05:43:35.892Z,9.40
2022-12-23T05:46:26.891Z,9.40
2022-12-23T05:49:15.319Z,9.50
2022-12-23T05:52:03.543Z,9.40
2022-12-23T05:54:52.445Z,9.40
2022-12-23T05:57:40.007Z,9.40
2022-12-23T06:00:29.334Z,9.30
2022-12-23T06:03:17.597Z,9.40
2022-12-23T06:06:05.876Z,9.30
2022-12-23T06:08:59.401Z,9.30
2022-12-23T06:11:49.555Z,9.30
2022-12-23T06:14:37.589Z,9.20
2022-12-23T06:17:25.676Z,9.30
2022-12-23T06:20:19.884Z,9.20
2022-12-23T06:23:09.047Z,9.10
2022-12-23T06:25:59.770Z,9.10
2022-12-23T06:28:49.279Z,9.10
2022-12-23T06:31:36.538Z,9.20
2022-12-23T06:34:23.862Z,9.10
2022-12-23T06:37:12.007Z,9.10
2022-12-23T06:39:59.991Z,9.20
2022-12-23T06:42:47.937Z,9.10
2022-12-23T06:45:37.348Z,9.10
2022-12-23T06:48:24.913Z,9.00
2022-12-23T06:51:13.065Z,9.00
2022-12-23T06:54:01.559Z,8.40
2022-12-23T06:56:49.736Z,9.00
2022-12-23T06:59:37.219Z,9.00
2022-12-23T07:02:27.069Z,9.00
2022-12-23T07:05:15.327Z,9.00
2022-12-23T07:08:02.877Z,9.00
2022-12-23T07:10:50.201Z,9.00
2022-12-23T07:13:38.360Z,8.90
2022-12-23T07:16:26.281Z,8.70
2022-12-23T07:19:15.709Z,8.90
2022-12-23T07:22:03.453Z,8.90
2022-12-23T07:24:51.450Z,8.90
2022-12-23T07:27:39.615Z,8.90
2022-12-23T07:30:27.752Z,8.80
2022-12-23T07:33:15.618Z,8.90
2022-12-23T07:36:04.709Z,8.80
2022-12-23T07:38:52.470Z,8.80
2022-12-23T07:41:39.755Z,8.80
2022-12-23T07:44:27.240Z,8.80
2022-12-23T07:47:15.636Z,8.80
2022-12-23T07:50:03.788Z,8.70
2022-12-23T07:52:53.215Z,8.80
2022-12-23T07:55:41.060Z,8.70
2022-12-23T07:58:28.979Z,8.70
2022-12-23T08:01:17.644Z,8.80
2022-12-23T08:04:05.300Z,8.80
2022-12-23T08:06:53.033Z,8.80
2022-12-23T08:09:42.088Z,8.80
2022-12-23T08:12:29.653Z,8.90
2022-12-23T08:15:17.005Z,9.60
2022-12-23T08:18:04.529Z,8.90
2022-12-23T08:20:56.878Z,8.90
2022-12-23T08:23:44.978Z,8.90
2022-12-23T08:26:34.329Z,8.90
2022-12-23T08:29:22.188Z,8.90
2022-12-23T08:32:10.646Z,8.90
2022-12-23T08:34:58.659Z,8.80
2022-12-23T08:37:46.252Z,8.80
2022-12-23T08:40:33.435Z,8.90
2022-12-23T08:43:22.240Z,8.90
2022-12-23T08:46:09.820Z,8.90
2022-12-23T08:48:57.604Z,9.00
2022-12-23T08:51:45.630Z,8.90
2022-12-23T08:54:33.510Z,9.00
2022-12-23T08:57:21.214Z,9.00
2022-12-23T09:00:11.560Z,9.10
2022-12-23T09:02:59.745Z,9.10
2022-12-23T09:05:47.975Z,9.10
2022-12-23T09:08:36.092Z,9.10
2022-12-23T09:11:25.163Z,9.50
2022-12-23T09:14:13.295Z,9.10
2022-12-23T09:17:02.249Z,9.10
2022-12-23T09:19:52.978Z,9.20
2022-12-23T09:22:41.571Z,9.20
2022-12-23T09:25:29.151Z,9.10
2022-12-23T09:28:16.385Z,9.20
2022-12-23T09:31:07.668Z,9.20
2022-12-23T09:33:57.197Z,9.10
2022-12-23T09:36:46.276Z,9.20
2022-12-23T09:39:36.024Z,9.10
2022-12-23T09:42:29.684Z,9.10
2022-12-23T09:45:21.035Z,8.90
2022-12-23T09:48:10.823Z,9.10
2022-12-23T09:50:59.557Z,9.10
2022-12-23T09:53:50.952Z,9.10
2022-12-23T09:56:52.720Z,9.00
2022-12-23T09:59:49.480Z,9.10
2022-12-23T10:02:44.651Z,9.20
2022-12-23T10:05:37.076Z,9.10
2022-12-23T10:08:29.710Z,9.10
2022-12-23T10:11:19.923Z,9.10
2022-12-23T10:14:13.533Z,9.10
2022-12-23T10:17:03.724Z,9.10
2022-12-23T10:19:51.195Z,9.00
2022-12-23T10:22:41.467Z,9.10
2022-12-23T10:25:34.089Z,9.00
2022-12-23T10:28:22.251Z,9.10
2022-12-23T10:34:24.797Z,9.00
2022-12-23T10:37:14.871Z,9.00
2022-12-23T10:40:09.855Z,9.00
2022-12-23T10:43:05.524Z,9.10
2022-12-23T10:45:55.390Z,9.20
2022-12-23T10:48:49.339Z,9.20
2022-12-23T10:51:43.090Z,9.30
2022-12-23T10:54:33.693Z,9.30
2022-12-23T10:57:21.220Z,9.30
2022-12-23T11:00:16.206Z,9.30
2022-12-23T11:03:10.130Z,9.30
2022-12-23T11:05:59.359Z,9.30
2022-12-23T11:08:47.454Z,9.30
2022-12-23T11:11:53.852Z,9.40
2022-12-23T11:14:42.727Z,9.40
2022-12-23T11:17:33.464Z,9.30
2022-12-23T11:20:21.828Z,9.40
2022-12-23T11:23:26.514Z,9.40
2022-12-23T11:26:15.025Z,9.40
2022-12-23T11:29:12.475Z,9.40
2022-12-23T11:32:00.411Z,9.30
2022-12-23T11:34:50.376Z,9.30
2022-12-23T11:37:38.827Z,9.40
2022-12-23T11:40:27.691Z,9.40
2022-12-23T11:43:17.181Z,9.40
2022-12-23T11:46:19.217Z,9.50
2022-12-23T11:49:08.320Z,9.50
2022-12-23T11:52:02.885Z,9.60
2022-12-23T11:54:54.612Z,9.60
2022-12-23T11:57:44.609Z,9.50
2022-12-23T12:00:35.069Z,12.40
2022-12-23T12:03:26.137Z,10.70
2022-12-23T12:06:15.762Z,9.70
2022-12-23T12:09:05.786Z,9.80
2022-12-23T12:11:54.757Z,9.90
2022-12-23T12:14:44.074Z,10.00
2022-12-23T12:17:35.972Z,10.00
2022-12-23T12:20:28.516Z,10.20
2022-12-23T12:23:19.522Z,10.30
2022-12-23T12:26:10.629Z,10.40
2022-12-23T12:28:59.652Z,10.60
2022-12-23T12:31:48.627Z,10.60
2022-12-23T12:34:43.705Z,10.70
2022-12-23T12:37:37.023Z,10.80
2022-12-23T12:40:29.703Z,10.90
2022-12-23T12:43:21.906Z,11.00
2022-12-23T12:46:17.860Z,11.10
2022-12-23T12:49:06.836Z,11.20
2022-12-23T12:51:58.461Z,11.30
2022-12-23T12:54:50.920Z,11.30
2022-12-23T12:57:38.942Z,11.50
2022-12-23T13:00:28.455Z,10.80
2022-12-23T13:03:27.432Z,11.80
2022-12-23T13:06:20.140Z,12.00
2022-12-23T13:09:11.730Z,12.00
2022-12-23T13:12:02.254Z,12.20
2022-12-23T13:14:56.066Z,12.30
2022-12-23T13:17:47.193Z,12.50
2022-12-23T13:20:38.066Z,12.50
2022-12-23T13:23:45.809Z,12.60
2022-12-23T13:26:37.289Z,12.70
2022-12-23T13:29:41.088Z,13.10
2022-12-23T13:32:49.818Z,12.80
2022-12-23T13:35:43.658Z,12.80
2022-12-23T13:38:40.904Z,12.80
2022-12-23T13:41:32.531Z,12.80
2022-12-23T13:44:20.750Z,12.80
2022-12-23T13:47:12.179Z,12.70
2022-12-23T13:50:04.095Z,10.70
2022-12-23T13:53:03.294Z,12.80
2022-12-23T13:55:57.762Z,12.70
2022-12-23T13:58:48.509Z,12.70
2022-12-23T14:01:37.113Z,12.60
2022-12-23T14:04:33.049Z,12.60
2022-12-23T14:07:22.590Z,12.60
2022-12-23T14:10:21.746Z,12.60
2022-12-23T14:13:09.715Z,12.60
2022-12-23T14:16:14.952Z,12.20
2022-12-23T14:19:07.917Z,13.30
2022-12-23T14:22:01.387Z,12.60
2022-12-23T14:25:12.536Z,12.70
2022-12-23T14:28:06.523Z,12.80
2022-12-23T14:30:54.902Z,12.60
2022-12-23T14:33:48.492Z,12.60
2022-12-23T14:36:36.206Z,12.50
2022-12-23T14:39:31.736Z,12.60
2022-12-23T14:42:34.717Z,12.50
2022-12-23T14:45:37.214Z,12.50
2022-12-23T14:48:48.951Z,12.50
2022-12-23T14:51:38.772Z,12.60
2022-12-23T14:54:38.696Z,12.50
2022-12-23T14:57:28.822Z,12.40
2022-12-23T15:00:16.324Z,12.40
2022-12-23T15:03:05.407Z,12.40
2022-12-23T15:06:03.970Z,12.40
2022-12-23T15:08:53.755Z,12.30
2022-12-23T15:11:42.066Z,12.30
2022-12-23T15:14:32.655Z,12.30
2022-12-23T15:17:25.078Z,12.30
2022-12-23T15:20:15.364Z,12.20
2022-12-23T15:23:03.556Z,12.20
2022-12-23T15:25:51.805Z,12.30
2022-12-23T15:28:42.355Z,12.30
2022-12-23T15:31:32.383Z,12.30
2022-12-23T15:34:23.224Z,12.30
2022-12-23T15:37:13.573Z,12.20
2022-12-23T15:40:11.398Z,12.30
2022-12-23T15:43:01.443Z,12.20
2022-12-23T15:45:48.867Z,12.30
2022-12-23T15:48:38.197Z,12.20
2022-12-23T15:51:57.622Z,12.20
2022-12-23T15:54:41.621Z,11.40
2022-12-23T15:57:30.253Z,12.20
2022-12-23T16:00:20.027Z,12.20
2022-12-23T16:03:13.736Z,12.10
2022-12-23T16:06:10.626Z,12.10
2022-12-23T16:08:59.689Z,12.10
2022-12-23T16:11:56.530Z,12.10
2022-12-23T16:14:51.002Z,12.10
2022-12-23T16:17:38.787Z,12.10
2022-12-23T16:20:27.438Z,12.00
2022-12-23T16:23:16.107Z,12.00
2022-12-23T16:26:04.834Z,12.20
2022-12-23T16:28:55.057Z,12.00
2022-12-23T16:31:50.322Z,11.90
2022-12-23T16:34:40.212Z,11.90
2022-12-23T16:37:28.269Z,11.80
2022-12-23T16:40:17.156Z,11.80
2022-12-23T16:43:04.791Z,11.80
2022-12-23T16:45:56.377Z,11.60
2022-12-23T16:48:49.994Z,11.50
2022-12-23T16:51:39.416Z,11.50
2022-12-23T16:54:27.476Z,11.70
2022-12-23T16:57:14.901Z,11.80
2022-12-23T17:00:02.411Z,11.80
2022-12-23T17:02:51.678Z,11.90
2022-12-23T17:05:39.826Z,11.90
2022-12-23T17:08:27.938Z,11.90
2022-12-23T17:11:16.123Z,11.90
2022-12-23T17:14:06.850Z,11.80
2022-12-23T17:16:58.529Z,11.90
2022-12-23T17:19:47.452Z,11.90
2022-12-23T17:22:37.018Z,11.90
2022-12-23T17:25:26.784Z,11.90
2022-12-23T17:28:14.998Z,11.90
2022-12-23T17:31:07.110Z,11.70
2022-12-23T17:33:58.578Z,11.90
2022-12-23T17:36:50.429Z,12.00
2022-12-23T17:39:38.810Z,11.80
2022-12-23T17:42:27.061Z,11.70
2022-12-23T17:45:22.186Z,11.70
2022-12-23T17:48:16.340Z,11.70
2022-12-23T17:51:10.251Z,11.80
2022-12-23T17:53:59.975Z,11.80
2022-12-23T17:56:47.340Z,11.90
2022-12-23T17:59:35.283Z,11.80
2022-12-23T18:02:24.641Z,11.90
2022-12-23T18:05:23.979Z,11.90
2022-12-23T18:08:12.152Z,11.80
2022-12-23T18:11:01.397Z,11.80
2022-12-23T18:13:49.660Z,11.80
2022-12-23T18:16:37.025Z,11.90
2022-12-23T18:19:24.891Z,11.70
2022-12-23T18:22:16.274Z,11.80
2022-12-23T18:25:04.307Z,11.90
2022-12-23T18:27:53.408Z,11.80
2022-12-23T18:30:41.497Z,11.80
2022-12-23T18:33:30.388Z,11.80
2022-12-23T18:36:22.718Z,12.30
2022-12-23T18:39:11.360Z,11.80
2022-12-23T18:41:59.655Z,11.60
2022-12-23T18:44:49.605Z,11.70
2022-12-23T18:47:38.118Z,11.70
2022-12-23T18:50:26.838Z,11.70
2022-12-23T18:53:23.328Z,11.70
2022-12-23T18:56:13.271Z,11.70
2022-12-23T18:59:01.563Z,11.70
2022-12-23T19:01:51.283Z,11.70
2022-12-23T19:04:38.937Z,11.70
2022-12-23T19:07:27.561Z,11.70
2022-12-23T19:10:16.661Z,11.80
2022-12-23T19:13:04.581Z,11.80
2022-12-23T19:15:52.741Z,11.70
2022-12-23T19:18:41.685Z,11.70
2022-12-23T19:21:29.207Z,11.70
2022-12-23T19:24:17.283Z,11.60
2022-12-23T19:27:04.834Z,11.70
2022-12-23T19:29:52.886Z,11.60
2022-12-23T19:32:40.683Z,11.60
2022-12-23T19:35:30.088Z,11.70
2022-12-23T19:38:17.923Z,11.60
2022-12-23T19:41:07.400Z,11.50
2022-12-23T19:43:54.826Z,11.40
2022-12-23T19:46:43.068Z,11.40
2022-12-23T19:49:30.566Z,11.30
2022-12-23T19:52:19.750Z,11.30
2022-12-23T19:55:07.124Z,11.30
2022-12-23T19:57:56.592Z,11.30
2022-12-23T20:00:47.409Z,11.40
2022-12-23T20:03:36.214Z,11.30
2022-12-23T20:06:24.695Z,11.30
2022-12-23T20:09:14.491Z,11.40
2022-12-23T20:12:02.100Z,11.40
2022-12-23T20:14:50.279Z,11.50
2022-12-23T20:17:38.953Z,11.50
2022-12-23T20:20:26.804Z,11.30
2022-12-23T20:23:14.770Z,11.50
2022-12-23T20:26:04.716Z,11.40
2022-12-23T20:28:52.070Z,11.50
2022-12-23T20:31:40.388Z,11.50
2022-12-23T20:34:29.907Z,11.40
2022-12-23T20:37:20.190Z,11.40
2022-12-23T20:40:09.485Z,11.30
2022-12-23T20:42:59.417Z,11.40
2022-12-23T20:45:47.532Z,11.40
2022-12-23T20:48:36.119Z,11.40
2022-12-23T20:51:24.911Z,11.30
2022-12-23T20:54:12.922Z,11.20
2022-12-23T20:57:00.448Z,11.10
2022-12-23T20:59:50.227Z,11.10
2022-12-23T21:02:38.243Z,10.90
2022-12-23T21:05:25.658Z,10.90
2022-12-23T21:08:13.570Z,10.80
2022-12-23T21:11:01.041Z,10.80
2022-12-23T21:13:49.157Z,10.70
2022-12-23T21:16:39.406Z,10.80
2022-12-23T21:19:27.118Z,10.90
2022-12-23T21:22:15.237Z,11.10
2022-12-23T21:25:02.815Z,10.80
2022-12-23T21:27:51.825Z,10.80
2022-12-23T21:30:39.378Z,10.60
2022-12-23T21:33:28.751Z,10.50
2022-12-23T21:36:20.518Z,10.50
2022-12-23T21:39:09.161Z,10.50
2022-12-23T21:41:56.902Z,10.40
2022-12-23T21:44:45.027Z,10.50
2022-12-23T21:47:33.085Z,10.40
2022-12-23T21:50:22.499Z,10.50
2022-12-23T21:53:10.240Z,10.40
2022-12-23T21:56:01.058Z,10.40
2022-12-23T21:58:48.843Z,10.40
2022-12-23T22:01:36.848Z,10.50
2022-12-23T22:04:25.106Z,10.60
2022-12-23T22:07:14.498Z,10.50
2022-12-23T22:10:02.168Z,10.40
2022-12-23T22:12:50.116Z,10.30
2022-12-23T22:15:42.089Z,10.30
2022-12-23T22:18:29.687Z,10.20
2022-12-23T22:21:19.046Z,10.20
2022-12-23T22:24:08.265Z,10.20
2022-12-23T22:26:55.529Z,10.20
2022-12-23T22:29:43.176Z,10.20
2022-12-23T22:32:30.577Z,10.30
2022-12-23T22:35:18.569Z,10.90
2022-12-23T22:38:06.140Z,10.60
2022-12-23T22:40:55.639Z,10.40
2022-12-23T22:43:42.956Z,10.40
2022-12-23T22:46:31.097Z,10.60
2022-12-23T22:49:19.686Z,10.60
2022-12-23T22:52:08.126Z,10.60
2022-12-23T22:54:56.031Z,10.60
2022-12-23T22:57:45.409Z,10.60
2022-12-23T23:00:33.201Z,10.60
2022-12-23T23:03:21.253Z,10.70
2022-12-23T23:06:09.512Z,10.70
2022-12-23T23:08:57.473Z,10.70
2022-12-23T23:11:45.669Z,10.70
2022-12-23T23:14:52.516Z,10.80
2022-12-23T23:17:40.258Z,10.80
2022-12-23T23:20:27.923Z,10.80
2022-12-23T23:23:16.238Z,10.80
2022-12-23T23:26:04.701Z,10.80
2022-12-23T23:28:52.117Z,10.80
2022-12-23T23:31:43.282Z,10.80
2022-12-23T23:34:32.203Z,10.80
2022-12-23T23:37:20.132Z,10.90
2022-12-23T23:40:08.485Z,11.00
2022-12-23T23:42:56.507Z,10.70
2022-12-23T23:45:44.840Z,10.60
2022-12-23T23:48:34.495Z,10.60
2022-12-23T23:51:22.568Z,10.80
2022-12-23T23:54:10.742Z,10.70
2022-12-23T23:56:59.027Z,10.70
2022-12-23T23:59:47.421Z,10.70
